Time;durP1;ratioP1;P1;durP2;ratioP2;P2;SDS_P1;SDS_P2;PMS_P1;PMS_P2;Temp;Humidity;BMP_temperature;BMP_pressure;BME280_temperature;BME280_humidity;BME280_pressure;Samples;Min_cycle;Max_cycle;Signal;HPM_P1;HPM_P2
2023/04/14 00:00:44;;;;;;;;;;;;;;;;;;6264317;22;19946;-77
2023/04/14 00:03:10;;;;;;;;;;;;;;;;;;6264815;22;19922;-77
2023/04/14 00:05:36;;;;;;;;;;;;;;;;;;6265462;22;19941;-77
2023/04/14 00:08:02;;;;;;;;;;;;;;;;;;6266376;22;20166;-77
2023/04/14 00:10:28;;;;;;;;;;;;;;;;;;6267233;22;19915;-78
2023/04/14 00:12:55;;;;;;;;;;;;;;;;;;6267099;22;19915;-77
2023/04/14 00:15:21;;;;;;;;;;;;;;;;;;6266812;22;20336;-77
2023/04/14 00:17:47;;;;;;;;;;;;;;;;;;6265359;22;20199;-77
2023/04/14 00:20:13;;;;;;;;;;;;;;;;;;6266630;22;19937;-77
2023/04/14 00:22:39;;;;;;;;;;;;;;;;;;6241165;22;19929;-77
2023/04/14 00:25:05;;;;;;;;;;;;;;;;;;6241101;22;20403;-77
2023/04/14 00:27:31;;;;;;;;;;;;;;;;;;6262829;22;19926;-77
2023/04/14 00:29:57;;;;;;;;;;;;;;;;;;6235505;22;19927;-77
2023/04/14 00:32:23;;;;;;;;;;;;;;;;;;6263827;22;19990;-77
2023/04/14 00:34:49;;;;;;;;;;;;;;;;;;6210568;22;20005;-77
2023/04/14 00:37:15;;;;;;;;;;;;;;;;;;6235937;22;19982;-81
2023/04/14 00:39:41;;;;;;;;;;;;;;;;;;6235034;22;19919;-77
2023/04/14 00:42:07;;;;;;;;;;;;;;;;;;6234133;22;19991;-77
2023/04/14 00:44:33;;;;;;;;;;;;;;;;;;6235500;22;19915;-77
2023/04/14 00:46:59;;;;;;;;;;;;;;;;;;6236246;22;19942;-77
2023/04/14 00:49:25;;;;;;;;;;;;;;;;;;6235081;22;20739;-77
2023/04/14 00:51:51;;;;;;;;;;;;;;;;;;6235528;22;19942;-77
2023/04/14 00:54:17;;;;;;;;;;;;;;;;;;6210406;22;19926;-77
2023/04/14 00:56:43;;;;;;;;;;;;;;;;;;6236512;22;20461;-77
2023/04/14 00:59:09;;;;;;;;;;;;;;;;;;6235453;22;19951;-77
2023/04/14 01:01:36;;;;;;;;;;;;;;;;;;6235463;22;20361;-77
2023/04/14 01:04:01;;;;;;;;;;;;;;;;;;6235386;22;19954;-78
2023/04/14 01:06:28;;;;;;;;;;;;;;;;;;6236329;22;20255;-78
2023/04/14 01:08:54;;;;;;;;;;;;;;;;;;6235163;22;20257;-77
2023/04/14 01:11:19;;;;;;;;;;;;;;;;;;6235138;22;19919;-77
2023/04/14 01:13:45;;;;;;;;;;;;;;;;;;6235003;22;20759;-77
2023/04/14 01:16:11;;;;;;;;;;;;;;;;;;6235972;22;20249;-77
2023/04/14 01:18:37;;;;;;;;;;;;;;;;;;6234316;22;20249;-77
2023/04/14 01:21:03;;;;;;;;;;;;;;;;;;6234101;22;20268;-77
2023/04/14 01:23:30;;;;;;;;;;;;;;;;;;6210132;22;20370;-77
2023/04/14 01:25:56;;;;;;;;;;;;;;;;;;6235727;22;19919;-77
2023/04/14 01:28:22;;;;;;;;;;;;;;;;;;6243921;22;19919;-77
2023/04/14 01:30:48;;;;;;;;;;;;;;;;;;6263335;22;20008;-77
2023/04/14 01:33:15;;;;;;;;;;;;;;;;;;6260869;22;19989;-77
2023/04/14 01:35:41;;;;;;;;;;;;;;;;;;6261355;22;20013;-77
2023/04/14 01:38:07;;;;;;;;;;;;;;;;;;6261676;22;19915;-77
2023/04/14 01:40:33;;;;;;;;;;;;;;;;;;6261870;22;19946;-77
2023/04/14 01:42:59;;;;;;;;;;;;;;;;;;6259756;22;19962;-77
2023/04/14 01:45:25;;;;;;;;;;;;;;;;;;6261033;22;20396;-77
2023/04/14 01:47:50;;;;;;;;;;;;;;;;;;6235447;22;19923;-76
2023/04/14 01:50:16;;;;;;;;;;;;;;;;;;6260969;22;19915;-76
2023/04/14 01:52:42;;;;;;;;;;;;;;;;;;6259960;22;20343;-76
2023/04/14 01:55:09;;;;;;;;;;;;;;;;;;6261265;22;19930;-76
2023/04/14 01:57:35;;;;;;;;;;;;;;;;;;6261118;22;19915;-76
2023/04/14 02:00:01;;;;;;;;;;;;;;;;;;6259084;22;19968;-76
2023/04/14 02:02:27;;;;;;;;;;;;;;;;;;6261106;22;19982;-77
2023/04/14 02:04:52;;;;;;;;;;;;;;;;;;6260980;22;19915;-77
2023/04/14 02:07:18;;;;;;;;;;;;;;;;;;6260707;22;19914;-77
2023/04/14 02:09:44;;;;;;;;;;;;;;;;;;6260062;22;19954;-77
2023/04/14 02:12:10;;;;;;;;;;;;;;;;;;6260165;22;19990;-77
2023/04/14 02:14:36;;;;;;;;;;;;;;;;;;6260240;22;20014;-77
2023/04/14 02:17:03;;;;;;;;;;;;;;;;;;6260037;22;20235;-77
2023/04/14 02:19:29;;;;;;;;;;;;;;;;;;6260192;22;20639;-76
2023/04/14 02:21:55;;;;;;;;;;;;;;;;;;6260544;22;19915;-77
2023/04/14 02:24:21;;;;;;;;;;;;;;;;;;6260653;22;20699;-76
2023/04/14 02:26:47;;;;;;;;;;;;;;;;;;6260597;22;19919;-77
2023/04/14 02:29:13;;;;;;;;;;;;;;;;;;6234039;22;19919;-76
2023/04/14 02:31:39;;;;;;;;;;;;;;;;;;6260024;22;19919;-76
2023/04/14 02:34:06;;;;;;;;;;;;;;;;;;6260703;22;19922;-76
2023/04/14 02:36:31;;;;;;;;;;;;;;;;;;6260280;22;19915;-76
2023/04/14 02:38:57;;;;;;;;;;;;;;;;;;6260316;22;19982;-76
2023/04/14 02:41:23;;;;;;;;;;;;;;;;;;6259694;22;19915;-76
2023/04/14 02:43:50;;;;;;;;;;;;;;;;;;6260179;22;19919;-77
2023/04/14 02:46:16;;;;;;;;;;;;;;;;;;6260740;22;20344;-76
2023/04/14 02:48:42;;;;;;;;;;;;;;;;;;6260055;22;19995;-76
2023/04/14 02:51:07;;;;;;;;;;;;;;;;;;6260357;22;19915;-76
2023/04/14 02:53:33;;;;;;;;;;;;;;;;;;6234091;22;19922;-77
2023/04/14 02:55:59;;;;;;;;;;;;;;;;;;6260414;22;19915;-76
2023/04/14 02:58:26;;;;;;;;;;;;;;;;;;6259961;22;19919;-76
2023/04/14 03:00:52;;;;;;;0.10;0.10;;;;;;;;;;6259198;22;19922;-76
2023/04/14 03:03:19;;;;;;;0.10;0.10;;;;;;;;;;6259208;22;20039;-76
2023/04/14 03:05:46;;;;;;;0.10;0.10;;;;;;;;;;6259966;22;20016;-76
2023/04/14 03:08:14;;;;;;;0.10;0.10;;;;;;;;;;6259128;22;20012;-76
2023/04/14 03:10:40;;;;;;;0.10;0.10;;;;;;;;;;6259896;22;20324;-76
2023/04/14 03:13:07;;;;;;;0.20;0.20;;;;;;;;;;6259575;22;20088;-76
2023/04/14 03:15:34;;;;;;;0.10;0.10;;;;;;;;;;6260589;22;20022;-76
2023/04/14 03:18:00;;;;;;;0.10;0.10;;;;;;;;;;6258500;22;20016;-76
2023/04/14 03:20:27;;;;;;;0.10;0.10;;;;;;;;;;6259827;22;20113;-76
2023/04/14 03:22:59;;;;;;;0.32;0.32;;;;;;;;;;6258565;22;20027;-76
2023/04/14 03:25:27;;;;;;;0.10;0.10;;;;;;;;;;6259856;22;20031;-76
2023/04/14 03:27:58;;;;;;;0.10;0.10;;;;;;;;;;6258423;22;20019;-76
2023/04/14 03:30:25;;;;;;;0.10;0.10;;;;;;;;;;6234009;22;20084;-76
2023/04/14 03:32:52;;;;;;;0.10;0.10;;;;;;;;;;6233514;22;20030;-76
2023/04/14 03:35:20;;;;;;;0.10;0.10;;;;;;;;;;6233541;22;20016;-76
2023/04/14 03:37:48;;;;;;;0.10;0.10;;;;;;;;;;6233445;22;20016;-76
2023/04/14 03:40:14;;;;;;;0.10;0.10;;;;;;;;;;6233470;22;20020;-76
2023/04/14 03:42:43;;;;;;;0.10;0.10;;;;;;;;;;6233528;22;20027;-76
2023/04/14 03:45:10;;;;;;;0.10;0.10;;;;;;;;;;6232943;22;20043;-76
2023/04/14 03:47:37;;;;;;;0.10;0.10;;;;;;;;;;6233416;22;20015;-76
2023/04/14 03:50:04;;;;;;;0.10;0.10;;;;;;;;;;6233431;22;20011;-76
2023/04/14 03:52:32;;;;;;;0.10;0.10;;;;;;;;;;6233443;22;20032;-76
2023/04/14 03:55:02;;;;;;;0.10;0.10;;;;;;;;;;6232831;22;20047;-75
2023/04/14 03:57:29;;;;;;;0.10;0.10;;;;;;;;;;6232732;22;20023;-75
2023/04/14 03:59:55;;;;;;;0.10;0.10;;;;;;;;;;6233549;22;20024;-79
2023/04/14 04:02:21;;;;;;;0.10;0.10;;;;;;;;;;6232697;22;20148;-81
2023/04/14 04:04:48;;;;;;;0.10;0.10;;;;;;;;;;6207817;22;20015;-82
2023/04/14 04:07:14;;;;;;;0.75;0.75;;;;;;;;;;6207779;22;20020;-80
2023/04/14 04:09:42;;;;;;;0.10;0.10;;;;;;;;;;6233738;22;20027;-80
2023/04/14 04:12:09;;;;;;;0.10;0.10;;;;;;;;;;6233394;22;20015;-79
2023/04/14 04:14:38;;;;;;;0.10;0.10;;;;;;;;;;6207759;22;20117;-80
2023/04/14 04:17:05;;;;;;;0.10;0.10;;;;;;;;;;6232864;22;20023;-80
2023/04/14 04:19:32;;;;;;;0.10;0.10;;;;;;;;;;6234295;22;20024;-79
2023/04/14 04:21:59;;;;;;;0.10;0.10;;;;;;;;;;6233095;22;20185;-77
2023/04/14 04:24:27;;;;;;;0.10;0.10;;;;;;;;;;6260461;22;20034;-75
2023/04/14 04:26:53;;;;;;;0.10;0.10;;;;;;;;;;6233011;22;20031;-77
2023/04/14 04:29:20;;;;;;;0.10;0.10;;;;;;;;;;6252750;22;20465;-77
2023/04/14 04:31:46;;;;;;;0.10;0.10;;;;;;;;;;6264407;22;20030;-79
2023/04/14 04:34:14;;;;;;;0.10;0.10;;;;;;;;;;6263751;22;20082;-78
2023/04/14 04:36:40;;;;;;;0.10;0.10;;;;;;;;;;6263971;22;20019;-77
2023/04/14 04:39:06;;;;;;;0.10;0.10;;;;;;;;;;6263577;22;20011;-77
2023/04/14 04:41:32;;;;;;;0.10;0.10;;;;;;;;;;6263485;22;20023;-77
2023/04/14 04:43:59;;;;;;;0.10;0.10;;;;;;;;;;6262947;22;20377;-77
2023/04/14 04:46:25;;;;;;;0.10;0.10;;;;;;;;;;6264466;22;20019;-77
2023/04/14 04:48:52;;;;;;;0.10;0.10;;;;;;;;;;6264071;22;20022;-77
2023/04/14 04:51:18;;;;;;;0.10;0.10;;;;;;;;;;6264059;22;20021;-77
2023/04/14 04:53:44;;;;;;;0.10;0.10;;;;;;;;;;6265426;22;20434;-77
2023/04/14 04:56:10;;;;;;;0.20;0.20;;;;;;;;;;6266310;22;20104;-77
2023/04/14 04:58:36;;;;;;;0.10;0.10;;;;;;;;;;6265665;22;20018;-77
2023/04/14 05:01:09;;;;;;;0.20;0.20;;;;;;;;;;6266302;22;20370;-77
2023/04/14 05:03:35;;;;;;;0.10;0.10;;;;;;;;;;6266396;22;20051;-77
2023/04/14 05:06:01;;;;;;;0.10;0.10;;;;;;;;;;6264321;22;20396;-77
2023/04/14 05:08:27;;;;;;;0.10;0.10;;;;;;;;;;6265869;22;20319;-77
2023/04/14 05:10:54;;;;;;;0.10;0.10;;;;;;;;;;6265998;22;20090;-77
2023/04/14 05:13:21;;;;;;;0.10;0.10;;;;;;;;;;6266271;22;20023;-77
2023/04/14 05:15:47;;;;;;;0.10;0.10;;;;;;;;;;6265741;22;20046;-77
2023/04/14 05:18:13;;;;;;;0.10;0.10;;;;;;;;;;6265689;22;20078;-77
2023/04/14 05:20:39;;;;;;;0.10;0.10;;;;;;;;;;6265762;22;20323;-77
2023/04/14 05:23:06;;;;;;;0.10;0.10;;;;;;;;;;6265847;22;20046;-77
2023/04/14 05:25:32;;;;;;;0.10;0.10;;;;;;;;;;6264753;22;20019;-77
2023/04/14 05:27:58;;;;;;;0.10;0.10;;;;;;;;;;6263147;22;20340;-77
2023/04/14 05:30:25;;;;;;;0.10;0.10;;;;;;;;;;6235299;22;20196;-77
2023/04/14 05:32:51;;;;;;;0.10;0.10;;;;;;;;;;6235174;22;20023;-77
2023/04/14 05:35:17;;;;;;;0.73;0.73;;;;;;;;;;6235239;22;20346;-77
2023/04/14 05:37:43;;;;;;;0.10;0.10;;;;;;;;;;6209389;22;20020;-77
2023/04/14 05:40:10;;;;;;;0.10;0.10;;;;;;;;;;6234515;22;20446;-77
2023/04/14 05:42:36;;;;;;;0.10;0.10;;;;;;;;;;6235539;22;20012;-77
2023/04/14 05:45:02;;;;;;;0.10;0.10;;;;;;;;;;6235353;22;20061;-77
2023/04/14 05:47:29;;;;;;;0.10;0.10;;;;;;;;;;6234867;22;20027;-77
2023/04/14 05:49:55;;;;;;;0.10;0.10;;;;;;;;;;6234020;22;20016;-76
2023/04/14 05:52:21;;;;;;;0.10;0.10;;;;;;;;;;6235289;22;20028;-77
2023/04/14 05:54:47;;;;;;;0.20;0.20;;;;;;;;;;6234506;22;20489;-77
2023/04/14 05:57:13;;;;;;;0.10;0.10;;;;;;;;;;6209834;22;20012;-77
2023/04/14 05:59:39;;;;;;;0.10;0.10;;;;;;;;;;6234304;22;20287;-77
2023/04/14 06:02:06;;;;;;;0.77;0.77;;;;;;;;;;6234590;22;20098;-77
2023/04/14 06:04:32;;;;;;;0.10;0.10;;;;;;;;;;6234476;22;20046;-77
2023/04/14 06:06:59;;;;;;;0.20;0.20;;;;;;;;;;6234768;22;20024;-77
2023/04/14 06:09:25;;;;;;;0.10;0.10;;;;;;;;;;6234496;22;20046;-77
2023/04/14 06:11:51;;;;;;;0.10;0.10;;;;;;;;;;6233972;22;20023;-78
2023/04/14 06:14:17;;;;;;;0.10;0.10;;;;;;;;;;6234763;22;20062;-77
2023/04/14 06:16:43;;;;;;;0.10;0.10;;;;;;;;;;6234867;22;20019;-78
2023/04/14 06:19:09;;;;;;;;;;;;;;;;;;6235302;22;20482;-78
2023/04/14 06:21:35;;;;;;;;;;;;;;;;;;6235430;22;19922;-78
2023/04/14 06:24:01;;;;;;;;;;;;;;;;;;6234411;22;20305;-78
2023/04/14 06:26:27;;;;;;;;;;;;;;;;;;6235239;22;19919;-78
2023/04/14 06:28:53;;;;;;;;;;;;;;;;;;6248919;22;19990;-77
2023/04/14 06:31:19;;;;;;;;;;;;;;;;;;6239989;22;20044;-77
2023/04/14 06:33:45;;;;;;;;;;;;;;;;;;6265420;22;19925;-77
2023/04/14 06:36:12;;;;;;;;;;;;;;;;;;6264872;22;19915;-77
2023/04/14 06:38:38;;;;;;;;;;;;;;;;;;6265246;22;19915;-77
2023/04/14 06:41:04;;;;;;;;;;;;;;;;;;6239946;22;19921;-77
2023/04/14 06:43:30;;;;;;;;;;;;;;;;;;6265194;22;19934;-77
2023/04/14 06:45:56;;;;;;;;;;;;;;;;;;6265366;22;19914;-78
2023/04/14 06:48:22;;;;;;;;;;;;;;;;;;6265646;22;20011;-78
2023/04/14 06:50:48;;;;;;;;;;;;;;;;;;6265505;22;19918;-78
2023/04/14 06:53:14;;;;;;;;;;;;;;;;;;6265304;22;19988;-77
2023/04/14 06:55:41;;;;;;;;;;;;;;;;;;6265156;22;19929;-77
2023/04/14 06:58:06;;;;;;;;;;;;;;;;;;6265969;22;20355;-78
2023/04/14 07:00:32;;;;;;;;;;;;;;;;;;6265300;22;20338;-77
2023/04/14 07:02:58;;;;;;;;;;;;;;;;;;6265420;22;19934;-78
2023/04/14 07:05:25;;;;;;;;;;;;;;;;;;6265177;22;19914;-78
2023/04/14 07:07:51;;;;;;;;;;;;;;;;;;6239757;22;19923;-78
2023/04/14 07:10:17;;;;;;;;;;;;;;;;;;6265190;22;19914;-78
2023/04/14 07:12:43;;;;;;;;;;;;;;;;;;6265022;22;20339;-78
2023/04/14 07:15:09;;;;;;;;;;;;;;;;;;6265184;22;19914;-85
2023/04/14 07:17:35;;;;;;;;;;;;;;;;;;6265138;22;19915;-78
2023/04/14 07:20:04;;;;;;;;;;;;;;;;;;6265762;22;19925;-78
2023/04/14 07:22:30;;;;;;;;;;;;;;;;;;6264999;22;19915;-77
2023/04/14 07:24:56;;;;;;;;;;;;;;;;;;6264818;22;19918;-78
2023/04/14 07:27:22;;;;;;;;;;;;;;;;;;6239289;22;19914;-77
2023/04/14 07:29:48;;;;;;;;;;;;;;;;;;6239395;22;19994;-77
2023/04/14 07:32:14;;;;;;;;;;;;;;;;;;6264976;22;19914;-78
2023/04/14 07:34:42;;;;;;;;;;;;;;;;;;6239304;22;20334;-75
2023/04/14 07:37:08;;;;;;;;;;;;;;;;;;6263888;22;20318;-78
2023/04/14 07:39:34;;;;;;;;;;;;;;;;;;6264182;22;19919;-79
2023/04/14 07:42:00;;;;;;;;;;;;;;;;;;6239961;22;19979;-80
2023/04/14 07:44:26;;;;;;;;;;;;;;;;;;6265529;22;19918;-80
2023/04/14 07:46:52;;;;;;;;;;;;;;;;;;6239994;22;20325;-79
2023/04/14 07:49:18;;;;;;;;;;;;;;;;;;6265045;22;19950;-81
2023/04/14 07:51:44;;;;;;;;;;;;;;;;;;6264623;22;20383;-80
2023/04/14 07:54:10;;;;;;;;;;;;;;;;;;6264867;22;20262;-80
2023/04/14 07:56:36;;;;;;;;;;;;;;;;;;6264750;22;19923;-84
2023/04/14 07:59:02;;;;;;;;;;;;;;;;;;6264695;22;20230;-78
2023/04/14 08:01:28;;;;;;;;;;;;;;;;;;6265006;22;20340;-79
2023/04/14 08:03:54;;;;;;;;;;;;;;;;;;6264666;22;19919;-77
2023/04/14 08:06:20;;;;;;;;;;;;;;;;;;6265371;22;19924;-79
2023/04/14 08:08:46;;;;;;;;;;;;;;;;;;6264569;22;20025;-79
2023/04/14 08:11:12;;;;;;;;;;;;;;;;;;6239879;22;19980;-79
2023/04/14 08:13:38;;;;;;;;;;;;;;;;;;6265215;22;19914;-78
2023/04/14 08:16:04;;;;;;;;;;;;;;;;;;6241204;22;19915;-79
2023/04/14 08:18:30;;;;;;;;;;;;;;;;;;6265943;22;20349;-78
2023/04/14 08:20:56;;;;;;;;;;;;;;;;;;6264601;22;19914;-79
2023/04/14 08:23:22;;;;;;;;;;;;;;;;;;6265281;22;19929;-79
2023/04/14 08:25:48;;;;;;;;;;;;;;;;;;6265318;22;19922;-78
2023/04/14 08:28:14;;;;;;;;;;;;;;;;;;6266633;22;20215;-79
2023/04/14 08:30:40;;;;;;;;;;;;;;;;;;6266508;22;20467;-79
2023/04/14 08:33:06;;;;;;;;;;;;;;;;;;6266748;22;20246;-79
2023/04/14 08:35:32;;;;;;;;;;;;;;;;;;6266879;22;19915;-79
2023/04/14 08:38:00;;;;;;;;;;;;;;;;;;6266820;22;20356;-79
2023/04/14 08:40:25;;;;;;;;;;;;;;;;;;6266056;22;19949;-79
2023/04/14 08:42:51;;;;;;;;;;;;;;;;;;6266394;22;19950;-78
2023/04/14 08:45:18;;;;;;;;;;;;;;;;;;6266845;22;19980;-79
2023/04/14 08:47:44;;;;;;;;;;;;;;;;;;6265722;22;20397;-79
2023/04/14 08:50:10;;;;;;;;;;;;;;;;;;6241217;22;19978;-79
2023/04/14 08:52:36;;;;;;;;;;;;;;;;;;6266944;22;19914;-78
2023/04/14 08:55:03;;;;;;;;;;;;;;;;;;6241653;22;19972;-79
2023/04/14 08:57:32;;;;;;;;;;;;;;;;;;6266894;22;20414;-78
2023/04/14 08:59:58;;;;;;;;;;;;;;;;;;6266780;22;19918;-79
2023/04/14 09:02:26;;;;;;;;;;;;;;;;;;6265859;22;19918;-79
2023/04/14 09:04:52;;;;;;;0.10;0.10;;;;;;;;;;6266024;22;19922;-80
2023/04/14 09:07:19;;;;;;;0.10;0.10;;;;;;;;;;6266423;22;20753;-79
2023/04/14 09:09:45;;;;;;;;;;;;;;;;;;6266349;22;20802;-78
2023/04/14 09:12:12;;;;;;;0.70;0.70;;;;;;;;;;6265699;22;20278;-76
2023/04/14 09:14:39;;;;;;;16.13;14.57;;;;;;;;;;6262820;22;20029;-74
2023/04/14 09:17:05;;;;;;;10.30;9.65;;;;;;;;;;6263607;22;20157;-75
2023/04/14 09:19:32;;;;;;;91.18;85.30;;;;;;;;;;6264221;22;20026;-75
2023/04/14 09:21:59;;;;;;;9.00;8.35;;;;;;;;;;6263905;22;20023;-75
2023/04/14 09:24:32;;;;;;;11.75;11.00;;;;;;;;;;6264676;22;20505;-75
2023/04/14 09:26:58;;;;;;;;;;;;;;;;;;6264214;22;20132;-75
2023/04/14 09:29:25;;;;;;;172.30;161.93;;;;;;;;;;6263624;22;19919;-75
2023/04/14 09:31:51;;;;;;;248.82;231.93;;;;;;;;;;6264332;22;20031;-75
2023/04/14 09:34:18;;;;;;;287.27;268.48;;;;;;;;;;6264542;22;20127;-76
2023/04/14 09:37:11;;;;;;;372.17;346.35;;;;;;;;;;6263920;22;20023;-77
2023/04/14 09:39:47;;;;;;;328.27;306.25;;;;;;;;;;6285998;22;20535;-78
2023/04/14 09:42:13;;;;;;;419.38;389.35;;;;;;;;;;6263857;22;20019;-78
2023/04/14 09:44:56;;;;;;;436.27;404.58;;;;;;;;;;6263829;22;20022;-77
2023/04/14 09:47:23;;;;;;;404.30;375.45;;;;;;;;;;6263039;22;20088;-78
2023/04/14 09:49:56;;;;;;;379.65;352.73;;;;;;;;;;6263575;22;20012;-83
2023/04/14 09:52:23;;;;;;;408.40;379.33;;;;;;;;;;6264623;22;20022;-77
2023/04/14 09:54:55;;;;;;;494.30;457.05;;;;;;;;;;6263347;22;20047;-75
2023/04/14 09:57:25;;;;;;;500.50;462.70;;;;;;;;;;6264670;22;20015;-75
2023/04/14 09:59:51;;;;;;;475.10;439.13;;;;;;;;;;6261994;22;20034;-75
2023/04/14 10:02:17;;;;;;;459.20;424.67;;;;;;;;;;6263992;22;20446;-78
2023/04/14 10:04:43;;;;;;;472.70;436.77;;;;;;;;;;6238764;22;20027;-74
2023/04/14 10:07:11;;;;;;;454.42;419.88;;;;;;;;;;6290924;22;20011;-76
2023/04/14 10:09:39;;;;;;;464.30;428.48;;;;;;;;;;6263800;22;20399;-76
2023/04/14 10:12:07;;;;;;;451.65;417.23;;;;;;;;;;6263854;22;20504;-76
2023/04/14 10:14:34;;;;;;;427.08;394.98;;;;;;;;;;6263497;22;20030;-76
2023/04/14 10:17:01;;;;;;;429.08;397.27;;;;;;;;;;6263659;22;20572;-77
2023/04/14 10:19:28;;;;;;;411.25;380.25;;;;;;;;;;6262459;22;20055;-77
2023/04/14 10:21:55;;;;;;;399.73;369.90;;;;;;;;;;6257513;22;20512;-75
2023/04/14 10:24:21;;;;;;;380.33;352.40;;;;;;;;;;6263915;22;20042;-75
2023/04/14 10:26:48;;;;;;;347.40;322.58;;;;;;;;;;6262150;22;20019;-76
2023/04/14 10:29:14;;;;;;;398.35;368.63;;;;;;;;;;6262228;22;20084;-77
2023/04/14 10:31:43;;;;;;;385.73;357.02;;;;;;;;;;6263709;22;20458;-76
2023/04/14 10:34:10;;;;;;;375.27;348.13;;;;;;;;;;6264394;22;20594;-76
2023/04/14 10:36:36;;;;;;;353.23;328.02;;;;;;;;;;6263676;22;20023;-76
2023/04/14 10:39:04;;;;;;;368.25;341.73;;;;;;;;;;6263438;22;20018;-76
2023/04/14 10:41:49;;;;;;;369.65;342.77;;;;;;;;;;6263765;22;20023;-76
2023/04/14 10:44:28;;;;;;;366.95;340.63;;;;;;;;;;6263268;22;20286;-77
2023/04/14 10:46:55;;;;;;;459.40;423.92;;;;;;;;;;6262541;22;20073;-75
2023/04/14 10:49:24;;;;;;;434.58;402.00;;;;;;;;;;6263771;22;20019;-76
2023/04/14 10:51:50;;;;;;;475.33;438.67;;;;;;;;;;6262017;22;20069;-76
2023/04/14 10:54:18;;;;;;;456.88;422.02;;;;;;;;;;6263342;22;20090;-77
2023/04/14 10:57:02;;;;;;;466.70;431.08;;;;;;;;;;6263662;22;20027;-77
2023/04/14 10:59:28;;;;;;;398.85;369.92;;;;;;;;;;6263318;22;20102;-76
2023/04/14 11:01:56;;;;;;;344.33;319.17;;;;;;;;;;6290406;22;20082;-76
2023/04/14 11:04:22;;;;;;;265.25;247.98;;;;;;;;;;6263906;22;20023;-79
2023/04/14 11:06:50;;;;;;;304.70;284.58;;;;;;;;;;6263701;22;20019;-79
2023/04/14 11:09:31;;;;;;;360.80;335.50;;;;;;;;;;6264794;22;20025;-79
2023/04/14 11:12:02;;;;;;;441.58;408.45;;;;;;;;;;6238448;22;20019;-77
2023/04/14 11:14:30;;;;;;;457.77;423.20;;;;;;;;;;6262703;22;20022;-80
2023/04/14 11:17:00;;;;;;;492.23;453.58;;;;;;;;;;6262652;22;20512;-80
2023/04/14 11:19:27;;;;;;;495.90;457.30;;;;;;;;;;6265035;22;20022;-79
2023/04/14 11:21:54;;;;;;;547.65;501.83;;;;;;;;;;6239090;22;20414;-79
2023/04/14 11:24:24;;;;;;;546.92;500.92;;;;;;;;;;6264540;22;20027;-79
2023/04/14 11:26:54;;;;;;;542.88;497.20;;;;;;;;;;6264340;22;20054;-79
2023/04/14 11:29:20;;;;;;;515.85;474.73;;;;;;;;;;6238476;22;20023;-80
2023/04/14 11:31:46;;;;;;;490.55;451.77;;;;;;;;;;6264786;22;20342;-79
2023/04/14 11:34:12;;;;;;;454.55;420.10;;;;;;;;;;6264942;22;20019;-80
2023/04/14 11:36:39;;;;;;;443.25;409.40;;;;;;;;;;6263414;22;20023;-80
2023/04/14 11:39:05;;;;;;;394.55;365.27;;;;;;;;;;6238986;22;20094;-80
2023/04/14 11:41:32;;;;;;;483.70;446.83;;;;;;;;;;6264436;22;20122;-79
2023/04/14 11:43:58;;;;;;;449.33;415.45;;;;;;;;;;6264670;22;20068;-80
2023/04/14 11:46:25;;;;;;;461.63;426.85;;;;;;;;;;6238980;22;20350;-80
2023/04/14 11:48:57;;;;;;;447.80;414.20;;;;;;;;;;6263636;22;20086;-80
2023/04/14 11:51:31;;;;;;;443.75;410.50;;;;;;;;;;6264795;22;20050;-80
2023/04/14 11:53:57;;;;;;;473.45;437.60;;;;;;;;;;6263681;22;20114;-80
2023/04/14 11:56:23;;;;;;;474.00;438.48;;;;;;;;;;6264641;22;20397;-79
2023/04/14 11:58:51;;;;;;;479.30;443.00;;;;;;;;;;6264495;22;20038;-79
2023/04/14 12:01:22;;;;;;;481.83;445.08;;;;;;;;;;6265326;22;20485;-80
2023/04/14 12:03:48;;;;;;;432.65;399.65;;;;;;;;;;6266068;22;20019;-79
2023/04/14 12:06:15;;;;;;;507.75;467.35;;;;;;;;;;6266870;22;20025;-80
2023/04/14 12:08:41;;;;;;;560.42;514.25;;;;;;;;;;6266333;22;20034;-79
2023/04/14 12:11:14;;;;;;;538.47;495.30;;;;;;;;;;6266451;22;20492;-80
2023/04/14 12:13:40;;;;;;;526.60;485.25;;;;;;;;;;6266505;22;20026;-80
2023/04/14 12:16:07;;;;;;;494.08;455.83;;;;;;;;;;6293679;22;20107;-80
2023/04/14 12:18:33;;;;;;;503.10;463.65;;;;;;;;;;6266805;22;20414;-80
2023/04/14 12:21:03;;;;;;;476.92;440.35;;;;;;;;;;6266721;22;20398;-80
2023/04/14 12:23:29;;;;;;;466.65;430.52;;;;;;;;;;6240273;22;20019;-80
2023/04/14 12:25:56;;;;;;;445.52;411.42;;;;;;;;;;6265740;22;20015;-79
2023/04/14 12:28:29;;;;;;;461.10;425.80;;;;;;;;;;6265436;22;20046;-79
2023/04/14 12:30:58;;;;;;;459.17;423.83;;;;;;;;;;6235589;22;20020;-79
2023/04/14 12:33:26;;;;;;;489.15;450.40;;;;;;;;;;6209681;22;20020;-80
2023/04/14 12:35:53;;;;;;;478.92;441.15;;;;;;;;;;6235806;22;20023;-79
2023/04/14 12:38:24;;;;;;;483.67;445.38;;;;;;;;;;6235901;22;20210;-79
2023/04/14 12:40:50;;;;;;;469.42;432.75;;;;;;;;;;6235132;22;20020;-80
2023/04/14 12:43:26;;;;;;;486.27;447.58;;;;;;;;;;6235035;22;20477;-79
2023/04/14 12:45:52;;;;;;;475.58;437.73;;;;;;;;;;6235182;22;20175;-78
2023/04/14 12:48:18;;;;;;;505.10;463.90;;;;;;;;;;6235844;22;20078;-80
2023/04/14 12:50:44;;;;;;;511.63;469.55;;;;;;;;;;6235544;22;20023;-79
2023/04/14 12:53:29;;;;;;;520.08;476.08;;;;;;;;;;6235641;22;20426;-80
2023/04/14 12:56:14;;;;;;;495.92;455.67;;;;;;;;;;6235152;22;20028;-79
2023/04/14 12:58:42;;;;;;;510.42;468.75;;;;;;;;;;6235485;22;20074;-79
2023/04/14 13:01:10;;;;;;;495.40;454.23;;;;;;;;;;6235204;22;20015;-80
2023/04/14 13:03:44;;;;;;;487.13;447.77;;;;;;;;;;6234920;22;20073;-79
2023/04/14 13:06:10;;;;;;;;;;;;;;;;;;6235307;22;20016;-82
2023/04/14 13:08:36;;;;;;;485.75;445.95;;;;;;;;;;6233529;22;19922;-79
2023/04/14 13:11:02;;;;;;;485.10;446.00;;;;;;;;;;6234853;22;20026;-79
2023/04/14 13:13:28;;;;;;;488.58;449.73;;;;;;;;;;6209286;22;20445;-79
2023/04/14 13:15:56;;;;;;;490.45;452.02;;;;;;;;;;6235133;22;20342;-82
2023/04/14 13:18:22;;;;;;;473.40;436.65;;;;;;;;;;6235269;22;20023;-78
2023/04/14 13:20:53;;;;;;;457.38;422.63;;;;;;;;;;6234975;22;20023;-79
2023/04/14 13:23:19;;;;;;;496.33;457.85;;;;;;;;;;6233687;22;20023;-79
2023/04/14 13:25:45;;;;;;;517.55;476.45;;;;;;;;;;6234458;22;20027;-83
2023/04/14 13:28:11;;;;;;;526.65;484.98;;;;;;;;;;6234780;22;20031;-84
2023/04/14 13:30:41;;;;;;;528.92;486.55;;;;;;;;;;6259334;22;20024;-83
2023/04/14 13:33:07;;;;;;;535.67;492.67;;;;;;;;;;6260096;22;20328;-79
2023/04/14 13:35:33;;;;;;;532.88;489.85;;;;;;;;;;6260097;22;20099;-79
2023/04/14 13:38:00;;;;;;;535.67;491.00;;;;;;;;;;6260172;22;20019;-79
2023/04/14 13:40:26;;;;;;;544.47;497.88;;;;;;;;;;6260349;22;20026;-79
2023/04/14 13:42:52;;;;;;;558.42;508.83;;;;;;;;;;6259953;22;20054;-77
2023/04/14 13:45:18;;;;;;;555.40;505.08;;;;;;;;;;6260356;22;20027;-78
2023/04/14 13:47:48;;;;;;;553.28;501.73;;;;;;;;;;6259822;22;20015;-77
2023/04/14 13:50:16;;;;;;;551.63;501.48;;;;;;;;;;6235264;22;20470;-80
2023/04/14 13:52:42;;;;;;;549.60;496.40;;;;;;;;;;6259398;22;20019;-79
2023/04/14 13:55:09;;;;;;;547.85;494.45;;;;;;;;;;6234895;22;20054;-79
2023/04/14 13:57:36;;;;;;;553.50;499.73;;;;;;;;;;6259797;22;20374;-79
2023/04/14 14:00:04;;;;;;;558.38;506.17;;;;;;;;;;6233955;22;20038;-77
2023/04/14 14:02:32;;;;;;;560.25;507.20;;;;;;;;;;6259117;22;20028;-78
2023/04/14 14:04:58;;;;;;;552.95;498.73;;;;;;;;;;6260286;22;20730;-78
2023/04/14 14:07:25;;;;;;;551.10;496.63;;;;;;;;;;6259421;22;20020;-78
2023/04/14 14:09:51;;;;;;;554.78;498.58;;;;;;;;;;6259208;22;20106;-79
2023/04/14 14:12:17;;;;;;;564.65;510.20;;;;;;;;;;6259954;22;20019;-80
2023/04/14 14:14:43;;;;;;;561.65;507.02;;;;;;;;;;6259827;22;20023;-80
2023/04/14 14:17:09;;;;;;;570.95;515.38;;;;;;;;;;6259637;22;20344;-80
2023/04/14 14:19:35;;;;;;;575.55;521.30;;;;;;;;;;6234311;22;20058;-80
2023/04/14 14:22:02;;;;;;;571.42;517.22;;;;;;;;;;6258937;22;20023;-79
2023/04/14 14:24:29;;;;;;;575.03;521.40;;;;;;;;;;6259823;22;20023;-78
2023/04/14 14:26:55;;;;;;;573.70;517.40;;;;;;;;;;6259841;22;20020;-78
2023/04/14 14:29:22;;;;;;;574.22;518.60;;;;;;;;;;6259090;22;20584;-78
2023/04/14 14:31:48;;;;;;;563.28;507.48;;;;;;;;;;6258622;22;20034;-77
2023/04/14 14:34:14;;;;;;;565.50;508.90;;;;;;;;;;6259632;22;20027;-77
2023/04/14 14:36:40;;;;;;;568.63;511.70;;;;;;;;;;6259674;22;20476;-77
2023/04/14 14:39:07;;;;;;;567.75;510.50;;;;;;;;;;6256112;22;20020;-78
2023/04/14 14:41:34;;;;;;;559.05;500.95;;;;;;;;;;6258387;22;20019;-77
2023/04/14 14:44:00;;;;;;;557.30;498.38;;;;;;;;;;6257715;22;20030;-78
2023/04/14 14:46:26;;;;;;;552.70;493.10;;;;;;;;;;6232877;22;20058;-78
2023/04/14 14:48:52;;;;;;;551.40;491.15;;;;;;;;;;6257773;22;20019;-78
2023/04/14 14:51:18;;;;;;;545.05;481.38;;;;;;;;;;6258000;22;20045;-78
2023/04/14 14:53:44;;;;;;;542.15;469.42;;;;;;;;;;6257748;22;20023;-79
2023/04/14 14:56:10;;;;;;;544.20;478.05;;;;;;;;;;6258096;22;20023;-79
2023/04/14 14:58:36;;;;;;;542.67;471.40;;;;;;;;;;6260299;22;20077;-79
2023/04/14 15:01:04;;;;;;;545.67;483.50;;;;;;;;;;6260047;22;20039;-80
2023/04/14 15:03:30;;;;;;;546.00;479.67;;;;;;;;;;6257969;22;20071;-80